Overview Statistics Trail Chart Weather Telemetry Raw packets
 

This is the latest recevied weather packets stored in our database for station/object K6GMW. If no packets are shown the sender has not sent any weather packets the latest 10 day(s).

<< 1 2 3 4 >>
Time Temp. Humidity Pressure Rain* Wind** Luminosity Snow
1788638481 35.56° C 48% 1013.1 hPa 0 mm - 282 W/m² -
1788638179 36.67° C 45% 1013.1 hPa 0 mm - 442 W/m² -
1788637875 36.11° C 46% 1013.1 hPa 0 mm - 667 W/m² -
1788637574 36.11° C 45% 1013.1 hPa 0 mm - 360 W/m² -
1788637274 35.56° C 46% 1013.3 hPa 0 mm - 605 W/m² -
1788636987 35° C 47% 1013.2 hPa 0 mm - 1010 W/m² -
1788636663 35° C 48% 1013.1 hPa 0 mm - 294 W/m² -
1788636359 36.11° C 46% 1013.3 hPa 0 mm - 236 W/m² -
1788636056 36.67° C 44% 1013.2 hPa 0 mm - 289 W/m² -
1788635754 36.11° C 44% 1013.2 hPa 0 mm - 1052 W/m² -
1788635453 36.11° C 45% 1013.3 hPa 0 mm - 1023 W/m² -
1788635152 35° C 46% 1013.5 hPa 0 mm - 185 W/m² -
1788634851 35.56° C 46% 1013.4 hPa 0 mm - 144 W/m² -
1788634550 36.11° C 45% 1013.7 hPa 0 mm - 154 W/m² -
1788634250 37.22° C 43% 1013.8 hPa 0 mm - 259 W/m² -
1788633944 37.22° C 43% 1013.6 hPa 0 mm - 816 W/m² -
1788633644 37.22° C 42% 1013.6 hPa 0 mm - 1043 W/m² -
1788633343 36.67° C 43% 1013.8 hPa 0 mm - 1048 W/m² -
1788633039 36.67° C 42% 1014 hPa 0 mm - 1024 W/m² -
1788632738 36.11° C 44% 1014.1 hPa 0 mm - 1033 W/m² -
1788632438 35.56° C 45% 1014.3 hPa 0 mm - 1074 W/m² -
1788632133 36.67° C 44% 1014.4 hPa 0 mm - 320 W/m² -
1788631832 36.67° C 43% 1014.2 hPa 0 mm - 1052 W/m² -
1788631527 37.22° C 42% 1014.5 hPa 0 mm - 1009 W/m² -
1788631223 36.11° C 45% 1014.4 hPa 0 mm - 1031 W/m² -

* Rain latest hour (hover to see other rain measurements)
** Current wind speed in m/s (hover to see current wind gust speed)